sensor_id;sensor_type;location;lat;lon;timestamp;P1;durP1;ratioP1;P2;durP2;ratioP2
18338;SDS011;9295;44.484;11.240;2022-07-21T00:01:08;17.77;;;11.33;;
18338;SDS011;9295;44.484;11.240;2022-07-21T00:03:37;16.50;;;10.80;;
18338;SDS011;9295;44.484;11.240;2022-07-21T00:06:06;24.27;;;11.20;;
18338;SDS011;9295;44.484;11.240;2022-07-21T00:08:35;17.97;;;11.20;;
18338;SDS011;9295;44.484;11.240;2022-07-21T00:11:05;15.30;;;11.37;;
18338;SDS011;9295;44.484;11.240;2022-07-21T00:13:36;15.93;;;10.83;;
18338;SDS011;9295;44.484;11.240;2022-07-21T00:16:07;17.70;;;10.27;;
18338;SDS011;9295;44.484;11.240;2022-07-21T00:18:36;17.13;;;11.30;;
18338;SDS011;9295;44.484;11.240;2022-07-21T00:21:05;14.80;;;10.47;;
18338;SDS011;9295;44.484;11.240;2022-07-21T00:23:34;19.70;;;10.90;;
18338;SDS011;9295;44.484;11.240;2022-07-21T00:26:03;13.43;;;10.10;;
18338;SDS011;9295;44.484;11.240;2022-07-21T00:28:33;13.30;;;10.17;;
18338;SDS011;9295;44.484;11.240;2022-07-21T00:31:05;18.23;;;10.60;;
18338;SDS011;9295;44.484;11.240;2022-07-21T00:33:34;13.90;;;9.53;;
18338;SDS011;9295;44.484;11.240;2022-07-21T00:36:02;21.67;;;11.10;;
18338;SDS011;9295;44.484;11.240;2022-07-21T00:38:34;16.10;;;10.67;;
18338;SDS011;9295;44.484;11.240;2022-07-21T00:41:11;15.33;;;10.67;;
18338;SDS011;9295;44.484;11.240;2022-07-21T00:43:41;15.80;;;10.40;;
18338;SDS011;9295;44.484;11.240;2022-07-21T00:46:09;15.20;;;10.03;;
18338;SDS011;9295;44.484;11.240;2022-07-21T00:48:39;16.70;;;10.67;;
18338;SDS011;9295;44.484;11.240;2022-07-21T00:51:10;16.93;;;10.00;;
18338;SDS011;9295;44.484;11.240;2022-07-21T00:53:39;16.27;;;10.33;;
18338;SDS011;9295;44.484;11.240;2022-07-21T00:56:07;17.37;;;10.43;;
18338;SDS011;9295;44.484;11.240;2022-07-21T00:58:36;17.97;;;11.07;;
18338;SDS011;9295;44.484;11.240;2022-07-21T01:01:08;16.73;;;10.43;;
18338;SDS011;9295;44.484;11.240;2022-07-21T01:03:37;17.20;;;10.73;;
18338;SDS011;9295;44.484;11.240;2022-07-21T01:06:05;14.73;;;10.40;;
18338;SDS011;9295;44.484;11.240;2022-07-21T01:08:35;14.53;;;10.80;;
18338;SDS011;9295;44.484;11.240;2022-07-21T01:11:03;13.60;;;10.47;;
18338;SDS011;9295;44.484;11.240;2022-07-21T01:13:32;18.13;;;11.93;;
18338;SDS011;9295;44.484;11.240;2022-07-21T01:16:11;25.33;;;18.90;;
18338;SDS011;9295;44.484;11.240;2022-07-21T01:18:42;17.83;;;12.40;;
18338;SDS011;9295;44.484;11.240;2022-07-21T01:21:21;18.73;;;11.43;;
18338;SDS011;9295;44.484;11.240;2022-07-21T01:24:01;13.63;;;10.40;;
18338;SDS011;9295;44.484;11.240;2022-07-21T01:26:31;15.17;;;10.87;;
18338;SDS011;9295;44.484;11.240;2022-07-21T01:29:09;17.50;;;9.47;;
18338;SDS011;9295;44.484;11.240;2022-07-21T01:31:39;16.07;;;10.43;;
18338;SDS011;9295;44.484;11.240;2022-07-21T01:34:09;12.00;;;9.50;;
18338;SDS011;9295;44.484;11.240;2022-07-21T01:36:39;18.63;;;10.67;;
18338;SDS011;9295;44.484;11.240;2022-07-21T01:39:07;12.80;;;9.97;;
18338;SDS011;9295;44.484;11.240;2022-07-21T01:42:08;17.33;;;10.40;;
18338;SDS011;9295;44.484;11.240;2022-07-21T01:44:37;14.87;;;10.87;;
18338;SDS011;9295;44.484;11.240;2022-07-21T01:47:08;16.43;;;10.80;;
18338;SDS011;9295;44.484;11.240;2022-07-21T01:49:39;16.27;;;10.97;;
18338;SDS011;9295;44.484;11.240;2022-07-21T01:52:09;20.90;;;11.63;;
18338;SDS011;9295;44.484;11.240;2022-07-21T01:54:37;18.47;;;11.20;;
18338;SDS011;9295;44.484;11.240;2022-07-21T01:57:06;12.43;;;10.27;;
18338;SDS011;9295;44.484;11.240;2022-07-21T01:59:37;20.47;;;10.43;;
18338;SDS011;9295;44.484;11.240;2022-07-21T02:02:06;18.50;;;10.80;;
18338;SDS011;9295;44.484;11.240;2022-07-21T02:04:35;25.73;;;12.93;;
18338;SDS011;9295;44.484;11.240;2022-07-21T02:07:03;17.87;;;10.23;;
18338;SDS011;9295;44.484;11.240;2022-07-21T02:09:33;15.00;;;9.43;;
18338;SDS011;9295;44.484;11.240;2022-07-21T02:12:02;18.37;;;9.70;;
18338;SDS011;9295;44.484;11.240;2022-07-21T02:14:31;23.50;;;11.40;;
18338;SDS011;9295;44.484;11.240;2022-07-21T02:17:00;21.47;;;9.73;;
18338;SDS011;9295;44.484;11.240;2022-07-21T02:19:29;15.20;;;10.27;;
18338;SDS011;9295;44.484;11.240;2022-07-21T02:21:58;12.90;;;9.73;;
18338;SDS011;9295;44.484;11.240;2022-07-21T02:24:26;16.27;;;11.00;;
18338;SDS011;9295;44.484;11.240;2022-07-21T02:26:56;18.83;;;10.57;;
18338;SDS011;9295;44.484;11.240;2022-07-21T02:29:25;15.93;;;9.80;;
18338;SDS011;9295;44.484;11.240;2022-07-21T02:31:54;17.10;;;9.97;;
18338;SDS011;9295;44.484;11.240;2022-07-21T02:34:22;14.90;;;9.90;;
18338;SDS011;9295;44.484;11.240;2022-07-21T02:36:51;11.80;;;9.40;;
18338;SDS011;9295;44.484;11.240;2022-07-21T02:39:19;12.63;;;8.60;;
18338;SDS011;9295;44.484;11.240;2022-07-21T02:41:48;16.70;;;8.70;;
18338;SDS011;9295;44.484;11.240;2022-07-21T02:44:18;13.00;;;9.47;;
18338;SDS011;9295;44.484;11.240;2022-07-21T02:46:49;14.70;;;9.57;;
18338;SDS011;9295;44.484;11.240;2022-07-21T02:49:17;11.20;;;8.53;;
18338;SDS011;9295;44.484;11.240;2022-07-21T02:51:46;14.43;;;9.37;;
18338;SDS011;9295;44.484;11.240;2022-07-21T02:54:16;12.30;;;9.10;;
18338;SDS011;9295;44.484;11.240;2022-07-21T02:56:44;16.40;;;8.70;;
18338;SDS011;9295;44.484;11.240;2022-07-21T02:59:13;13.40;;;8.73;;
18338;SDS011;9295;44.484;11.240;2022-07-21T03:01:43;13.20;;;9.20;;
18338;SDS011;9295;44.484;11.240;2022-07-21T03:04:15;13.07;;;9.37;;
18338;SDS011;9295;44.484;11.240;2022-07-21T03:06:43;12.17;;;9.13;;
18338;SDS011;9295;44.484;11.240;2022-07-21T03:09:12;19.03;;;9.50;;
18338;SDS011;9295;44.484;11.240;2022-07-21T03:11:41;15.10;;;8.90;;
18338;SDS011;9295;44.484;11.240;2022-07-21T03:14:09;11.23;;;8.57;;
18338;SDS011;9295;44.484;11.240;2022-07-21T03:16:38;18.13;;;9.10;;
18338;SDS011;9295;44.484;11.240;2022-07-21T03:19:08;19.00;;;10.37;;
18338;SDS011;9295;44.484;11.240;2022-07-21T03:21:39;16.03;;;9.43;;
18338;SDS011;9295;44.484;11.240;2022-07-21T03:24:07;13.83;;;9.60;;
18338;SDS011;9295;44.484;11.240;2022-07-21T03:26:36;19.73;;;10.03;;
18338;SDS011;9295;44.484;11.240;2022-07-21T03:29:05;14.20;;;9.27;;
18338;SDS011;9295;44.484;11.240;2022-07-21T03:31:34;16.00;;;8.80;;
18338;SDS011;9295;44.484;11.240;2022-07-21T03:34:03;11.10;;;8.43;;
18338;SDS011;9295;44.484;11.240;2022-07-21T03:36:33;19.23;;;9.40;;
18338;SDS011;9295;44.484;11.240;2022-07-21T03:39:02;14.00;;;8.83;;
18338;SDS011;9295;44.484;11.240;2022-07-21T03:41:30;11.10;;;8.83;;
18338;SDS011;9295;44.484;11.240;2022-07-21T03:44:02;16.23;;;9.27;;
18338;SDS011;9295;44.484;11.240;2022-07-21T03:46:30;12.50;;;9.50;;
18338;SDS011;9295;44.484;11.240;2022-07-21T03:48:59;15.93;;;9.50;;
18338;SDS011;9295;44.484;11.240;2022-07-21T03:51:28;18.20;;;9.40;;
18338;SDS011;9295;44.484;11.240;2022-07-21T03:54:01;11.33;;;8.87;;
18338;SDS011;9295;44.484;11.240;2022-07-21T03:56:29;16.00;;;9.00;;
18338;SDS011;9295;44.484;11.240;2022-07-21T03:58:58;12.77;;;9.43;;
18338;SDS011;9295;44.484;11.240;2022-07-21T04:01:28;11.97;;;8.70;;
18338;SDS011;9295;44.484;11.240;2022-07-21T04:03:57;13.97;;;8.93;;
18338;SDS011;9295;44.484;11.240;2022-07-21T04:06:25;19.03;;;9.30;;
18338;SDS011;9295;44.484;11.240;2022-07-21T04:08:54;15.20;;;9.73;;
18338;SDS011;9295;44.484;11.240;2022-07-21T04:11:26;14.47;;;8.90;;
18338;SDS011;9295;44.484;11.240;2022-07-21T04:13:57;14.70;;;8.80;;
18338;SDS011;9295;44.484;11.240;2022-07-21T04:16:28;16.83;;;9.63;;
18338;SDS011;9295;44.484;11.240;2022-07-21T04:18:57;14.50;;;9.00;;
18338;SDS011;9295;44.484;11.240;2022-07-21T04:21:27;18.50;;;8.70;;
18338;SDS011;9295;44.484;11.240;2022-07-21T04:23:56;13.17;;;8.10;;
18338;SDS011;9295;44.484;11.240;2022-07-21T04:26:28;16.30;;;9.00;;
18338;SDS011;9295;44.484;11.240;2022-07-21T04:29:00;15.07;;;8.90;;
18338;SDS011;9295;44.484;11.240;2022-07-21T04:31:28;20.43;;;9.30;;
18338;SDS011;9295;44.484;11.240;2022-07-21T04:33:57;12.37;;;9.83;;
18338;SDS011;9295;44.484;11.240;2022-07-21T04:36:26;13.30;;;9.37;;
18338;SDS011;9295;44.484;11.240;2022-07-21T04:38:55;20.20;;;8.93;;
18338;SDS011;9295;44.484;11.240;2022-07-21T04:41:25;10.90;;;8.20;;
18338;SDS011;9295;44.484;11.240;2022-07-21T04:43:53;14.13;;;8.70;;
18338;SDS011;9295;44.484;11.240;2022-07-21T04:46:22;16.90;;;8.93;;
18338;SDS011;9295;44.484;11.240;2022-07-21T04:48:51;14.93;;;9.50;;
18338;SDS011;9295;44.484;11.240;2022-07-21T04:51:19;20.37;;;9.80;;
18338;SDS011;9295;44.484;11.240;2022-07-21T04:53:50;16.87;;;9.40;;
18338;SDS011;9295;44.484;11.240;2022-07-21T04:56:21;14.63;;;9.83;;
18338;SDS011;9295;44.484;11.240;2022-07-21T04:58:51;15.40;;;9.23;;
18338;SDS011;9295;44.484;11.240;2022-07-21T05:01:20;15.50;;;8.93;;
18338;SDS011;9295;44.484;11.240;2022-07-21T05:03:50;16.40;;;9.07;;
18338;SDS011;9295;44.484;11.240;2022-07-21T05:06:19;13.30;;;9.23;;
18338;SDS011;9295;44.484;11.240;2022-07-21T05:08:52;16.03;;;9.13;;
18338;SDS011;9295;44.484;11.240;2022-07-21T05:11:21;26.83;;;10.10;;
18338;SDS011;9295;44.484;11.240;2022-07-21T05:13:51;21.70;;;9.67;;
18338;SDS011;9295;44.484;11.240;2022-07-21T05:16:20;17.73;;;8.23;;
18338;SDS011;9295;44.484;11.240;2022-07-21T05:18:49;15.20;;;8.70;;
18338;SDS011;9295;44.484;11.240;2022-07-21T05:21:19;16.27;;;8.33;;
18338;SDS011;9295;44.484;11.240;2022-07-21T05:23:48;14.60;;;8.87;;
18338;SDS011;9295;44.484;11.240;2022-07-21T05:26:16;15.40;;;8.60;;
18338;SDS011;9295;44.484;11.240;2022-07-21T05:28:45;12.33;;;8.30;;
18338;SDS011;9295;44.484;11.240;2022-07-21T05:31:15;14.17;;;8.40;;
18338;SDS011;9295;44.484;11.240;2022-07-21T05:33:46;18.77;;;8.83;;
18338;SDS011;9295;44.484;11.240;2022-07-21T05:36:15;12.33;;;8.57;;
18338;SDS011;9295;44.484;11.240;2022-07-21T05:38:45;14.10;;;8.47;;
18338;SDS011;9295;44.484;11.240;2022-07-21T05:41:14;12.80;;;8.30;;
18338;SDS011;9295;44.484;11.240;2022-07-21T05:43:44;18.23;;;9.40;;
18338;SDS011;9295;44.484;11.240;2022-07-21T05:46:12;20.63;;;8.10;;
18338;SDS011;9295;44.484;11.240;2022-07-21T05:48:42;15.03;;;7.93;;
18338;SDS011;9295;44.484;11.240;2022-07-21T05:51:11;14.00;;;8.60;;
18338;SDS011;9295;44.484;11.240;2022-07-21T05:53:44;14.13;;;8.00;;
18338;SDS011;9295;44.484;11.240;2022-07-21T05:56:13;11.60;;;8.00;;
18338;SDS011;9295;44.484;11.240;2022-07-21T05:58:42;15.47;;;8.20;;
18338;SDS011;9295;44.484;11.240;2022-07-21T06:01:11;13.10;;;8.60;;
18338;SDS011;9295;44.484;11.240;2022-07-21T06:03:45;16.43;;;8.50;;
18338;SDS011;9295;44.484;11.240;2022-07-21T06:06:16;15.57;;;8.20;;
18338;SDS011;9295;44.484;11.240;2022-07-21T06:08:47;20.80;;;8.90;;
18338;SDS011;9295;44.484;11.240;2022-07-21T06:11:18;15.20;;;7.47;;
18338;SDS011;9295;44.484;11.240;2022-07-21T06:13:47;17.43;;;7.50;;
18338;SDS011;9295;44.484;11.240;2022-07-21T06:16:18;15.13;;;7.77;;
18338;SDS011;9295;44.484;11.240;2022-07-21T06:18:48;21.17;;;8.30;;
18338;SDS011;9295;44.484;11.240;2022-07-21T06:21:17;21.50;;;8.40;;
18338;SDS011;9295;44.484;11.240;2022-07-21T06:23:45;16.53;;;7.90;;
18338;SDS011;9295;44.484;11.240;2022-07-21T06:26:15;16.77;;;8.00;;
18338;SDS011;9295;44.484;11.240;2022-07-21T06:28:43;16.00;;;7.80;;
18338;SDS011;9295;44.484;11.240;2022-07-21T06:31:12;17.27;;;7.83;;
18338;SDS011;9295;44.484;11.240;2022-07-21T06:33:40;15.90;;;7.80;;
18338;SDS011;9295;44.484;11.240;2022-07-21T06:36:11;15.17;;;8.03;;
18338;SDS011;9295;44.484;11.240;2022-07-21T06:38:41;19.43;;;8.13;;
18338;SDS011;9295;44.484;11.240;2022-07-21T06:41:14;23.67;;;8.73;;
18338;SDS011;9295;44.484;11.240;2022-07-21T06:43:45;11.70;;;7.93;;
18338;SDS011;9295;44.484;11.240;2022-07-21T06:46:16;17.47;;;8.50;;
18338;SDS011;9295;44.484;11.240;2022-07-21T06:48:45;13.37;;;8.20;;
18338;SDS011;9295;44.484;11.240;2022-07-21T06:51:15;16.93;;;8.23;;
18338;SDS011;9295;44.484;11.240;2022-07-21T06:53:44;17.43;;;8.10;;
18338;SDS011;9295;44.484;11.240;2022-07-21T06:56:13;18.20;;;8.00;;
18338;SDS011;9295;44.484;11.240;2022-07-21T06:58:41;17.00;;;8.80;;
18338;SDS011;9295;44.484;11.240;2022-07-21T07:01:16;21.33;;;8.33;;
18338;SDS011;9295;44.484;11.240;2022-07-21T07:03:45;13.10;;;7.90;;
18338;SDS011;9295;44.484;11.240;2022-07-21T07:06:16;13.60;;;8.00;;
18338;SDS011;9295;44.484;11.240;2022-07-21T07:08:44;14.77;;;8.23;;
18338;SDS011;9295;44.484;11.240;2022-07-21T07:11:13;13.00;;;8.07;;
18338;SDS011;9295;44.484;11.240;2022-07-21T07:13:42;17.33;;;8.93;;
18338;SDS011;9295;44.484;11.240;2022-07-21T07:16:30;13.60;;;8.03;;
18338;SDS011;9295;44.484;11.240;2022-07-21T07:19:00;14.30;;;8.57;;
18338;SDS011;9295;44.484;11.240;2022-07-21T07:21:30;12.57;;;8.60;;
18338;SDS011;9295;44.484;11.240;2022-07-21T07:23:58;18.53;;;8.93;;
18338;SDS011;9295;44.484;11.240;2022-07-21T07:26:28;15.67;;;8.87;;
18338;SDS011;9295;44.484;11.240;2022-07-21T07:28:57;10.70;;;7.73;;
18338;SDS011;9295;44.484;11.240;2022-07-21T07:31:26;11.80;;;7.60;;
18338;SDS011;9295;44.484;11.240;2022-07-21T07:33:55;13.80;;;7.77;;
18338;SDS011;9295;44.484;11.240;2022-07-21T07:36:24;10.13;;;7.33;;
18338;SDS011;9295;44.484;11.240;2022-07-21T07:38:55;17.60;;;7.20;;
18338;SDS011;9295;44.484;11.240;2022-07-21T07:41:25;7.50;;;6.50;;
18338;SDS011;9295;44.484;11.240;2022-07-21T07:43:56;10.43;;;6.80;;
18338;SDS011;9295;44.484;11.240;2022-07-21T07:46:27;18.10;;;7.30;;
18338;SDS011;9295;44.484;11.240;2022-07-21T07:48:57;17.93;;;7.90;;
18338;SDS011;9295;44.484;11.240;2022-07-21T07:51:37;11.43;;;7.30;;
18338;SDS011;9295;44.484;11.240;2022-07-21T07:54:07;16.10;;;7.70;;
18338;SDS011;9295;44.484;11.240;2022-07-21T07:56:36;14.77;;;7.73;;
18338;SDS011;9295;44.484;11.240;2022-07-21T07:59:07;9.93;;;7.17;;
18338;SDS011;9295;44.484;11.240;2022-07-21T08:01:35;16.93;;;6.90;;
18338;SDS011;9295;44.484;11.240;2022-07-21T08:04:04;14.20;;;7.80;;
18338;SDS011;9295;44.484;11.240;2022-07-21T08:06:33;16.10;;;8.00;;
18338;SDS011;9295;44.484;11.240;2022-07-21T08:09:02;15.17;;;8.03;;
18338;SDS011;9295;44.484;11.240;2022-07-21T08:11:32;15.43;;;7.70;;
18338;SDS011;9295;44.484;11.240;2022-07-21T08:14:01;25.57;;;9.13;;
18338;SDS011;9295;44.484;11.240;2022-07-21T08:16:29;18.00;;;8.07;;
18338;SDS011;9295;44.484;11.240;2022-07-21T08:18:58;20.47;;;8.90;;
18338;SDS011;9295;44.484;11.240;2022-07-21T08:21:26;17.73;;;8.37;;
18338;SDS011;9295;44.484;11.240;2022-07-21T08:24:17;18.07;;;8.20;;
18338;SDS011;9295;44.484;11.240;2022-07-21T08:26:47;18.73;;;8.40;;
18338;SDS011;9295;44.484;11.240;2022-07-21T08:29:16;13.50;;;7.30;;
18338;SDS011;9295;44.484;11.240;2022-07-21T08:31:44;25.47;;;7.50;;
18338;SDS011;9295;44.484;11.240;2022-07-21T08:34:13;18.50;;;7.60;;
18338;SDS011;9295;44.484;11.240;2022-07-21T08:36:42;18.00;;;7.87;;
18338;SDS011;9295;44.484;11.240;2022-07-21T08:39:11;17.63;;;8.30;;
18338;SDS011;9295;44.484;11.240;2022-07-21T08:41:42;10.73;;;7.17;;
18338;SDS011;9295;44.484;11.240;2022-07-21T08:44:19;18.53;;;7.13;;
18338;SDS011;9295;44.484;11.240;2022-07-21T08:46:50;14.43;;;8.13;;
18338;SDS011;9295;44.484;11.240;2022-07-21T08:49:22;18.83;;;7.50;;
18338;SDS011;9295;44.484;11.240;2022-07-21T08:51:50;12.40;;;7.70;;
18338;SDS011;9295;44.484;11.240;2022-07-21T08:54:20;15.97;;;7.03;;
18338;SDS011;9295;44.484;11.240;2022-07-21T08:56:49;15.53;;;7.67;;
18338;SDS011;9295;44.484;11.240;2022-07-21T08:59:20;9.73;;;6.60;;
18338;SDS011;9295;44.484;11.240;2022-07-21T09:01:57;14.90;;;7.53;;
18338;SDS011;9295;44.484;11.240;2022-07-21T09:04:26;16.93;;;7.57;;
18338;SDS011;9295;44.484;11.240;2022-07-21T09:07:05;11.80;;;6.77;;
18338;SDS011;9295;44.484;11.240;2022-07-21T09:09:35;15.03;;;7.20;;
18338;SDS011;9295;44.484;11.240;2022-07-21T09:12:04;14.00;;;6.93;;
18338;SDS011;9295;44.484;11.240;2022-07-21T09:14:36;13.60;;;6.63;;
18338;SDS011;9295;44.484;11.240;2022-07-21T09:17:05;11.47;;;6.73;;
18338;SDS011;9295;44.484;11.240;2022-07-21T09:19:36;10.00;;;7.23;;
18338;SDS011;9295;44.484;11.240;2022-07-21T09:22:11;10.63;;;6.27;;
18338;SDS011;9295;44.484;11.240;2022-07-21T09:24:43;19.83;;;6.33;;
18338;SDS011;9295;44.484;11.240;2022-07-21T09:27:17;10.03;;;5.93;;
18338;SDS011;9295;44.484;11.240;2022-07-21T09:29:52;17.97;;;6.60;;
18338;SDS011;9295;44.484;11.240;2022-07-21T09:32:24;8.83;;;5.90;;
18338;SDS011;9295;44.484;11.240;2022-07-21T09:34:55;14.63;;;5.83;;
18338;SDS011;9295;44.484;11.240;2022-07-21T09:37:33;15.27;;;6.67;;
18338;SDS011;9295;44.484;11.240;2022-07-21T09:40:03;16.13;;;6.00;;
18338;SDS011;9295;44.484;11.240;2022-07-21T09:42:35;8.80;;;5.77;;
18338;SDS011;9295;44.484;11.240;2022-07-21T09:45:07;15.23;;;5.80;;
18338;SDS011;9295;44.484;11.240;2022-07-21T09:47:38;10.13;;;5.20;;
18338;SDS011;9295;44.484;11.240;2022-07-21T09:50:08;10.90;;;6.00;;
18338;SDS011;9295;44.484;11.240;2022-07-21T09:52:56;10.03;;;5.43;;
18338;SDS011;9295;44.484;11.240;2022-07-21T09:55:25;9.47;;;4.97;;
18338;SDS011;9295;44.484;11.240;2022-07-21T09:57:55;9.27;;;5.27;;
18338;SDS011;9295;44.484;11.240;2022-07-21T10:00:26;8.20;;;4.87;;
18338;SDS011;9295;44.484;11.240;2022-07-21T10:02:55;12.80;;;4.87;;
18338;SDS011;9295;44.484;11.240;2022-07-21T10:05:24;10.27;;;4.10;;
18338;SDS011;9295;44.484;11.240;2022-07-21T10:07:59;11.60;;;4.80;;
18338;SDS011;9295;44.484;11.240;2022-07-21T10:10:33;7.30;;;4.13;;
18338;SDS011;9295;44.484;11.240;2022-07-21T10:13:25;10.63;;;4.27;;
18338;SDS011;9295;44.484;11.240;2022-07-21T10:16:00;12.63;;;4.47;;
18338;SDS011;9295;44.484;11.240;2022-07-21T10:18:30;10.50;;;4.53;;
18338;SDS011;9295;44.484;11.240;2022-07-21T10:21:06;14.20;;;4.57;;
18338;SDS011;9295;44.484;11.240;2022-07-21T10:23:40;8.13;;;4.40;;
18338;SDS011;9295;44.484;11.240;2022-07-21T10:26:10;7.50;;;3.93;;
18338;SDS011;9295;44.484;11.240;2022-07-21T10:28:39;12.00;;;4.70;;
18338;SDS011;9295;44.484;11.240;2022-07-21T10:31:17;4.77;;;3.70;;
18338;SDS011;9295;44.484;11.240;2022-07-21T10:33:57;9.37;;;3.60;;
18338;SDS011;9295;44.484;11.240;2022-07-21T10:36:40;12.83;;;4.10;;
18338;SDS011;9295;44.484;11.240;2022-07-21T10:39:17;10.73;;;3.50;;
18338;SDS011;9295;44.484;11.240;2022-07-21T10:41:50;9.90;;;3.97;;
18338;SDS011;9295;44.484;11.240;2022-07-21T10:44:39;9.20;;;4.00;;
18338;SDS011;9295;44.484;11.240;2022-07-21T10:47:16;8.40;;;3.87;;
18338;SDS011;9295;44.484;11.240;2022-07-21T10:49:51;10.23;;;3.80;;
18338;SDS011;9295;44.484;11.240;2022-07-21T10:55:24;7.23;;;3.70;;
18338;SDS011;9295;44.484;11.240;2022-07-21T10:58:14;8.23;;;4.23;;
18338;SDS011;9295;44.484;11.240;2022-07-21T11:00:45;10.10;;;3.77;;
18338;SDS011;9295;44.484;11.240;2022-07-21T11:03:18;13.50;;;4.17;;
18338;SDS011;9295;44.484;11.240;2022-07-21T11:08:42;5.47;;;3.97;;
18338;SDS011;9295;44.484;11.240;2022-07-21T11:11:12;6.50;;;4.17;;
18338;SDS011;9295;44.484;11.240;2022-07-21T11:19:40;6.97;;;4.10;;
18338;SDS011;9295;44.484;11.240;2022-07-21T11:22:13;9.37;;;4.00;;
18338;SDS011;9295;44.484;11.240;2022-07-21T11:24:46;7.53;;;3.93;;
18338;SDS011;9295;44.484;11.240;2022-07-21T11:27:17;10.20;;;4.17;;
18338;SDS011;9295;44.484;11.240;2022-07-21T11:29:49;16.50;;;4.10;;
18338;SDS011;9295;44.484;11.240;2022-07-21T11:32:20;7.50;;;4.00;;
18338;SDS011;9295;44.484;11.240;2022-07-21T11:34:51;7.60;;;3.53;;
18338;SDS011;9295;44.484;11.240;2022-07-21T11:37:26;11.43;;;3.83;;
18338;SDS011;9295;44.484;11.240;2022-07-21T11:40:04;9.23;;;3.77;;
18338;SDS011;9295;44.484;11.240;2022-07-21T11:42:35;4.80;;;3.63;;
18338;SDS011;9295;44.484;11.240;2022-07-21T11:45:05;15.90;;;3.83;;
18338;SDS011;9295;44.484;11.240;2022-07-21T11:47:35;7.50;;;3.40;;
18338;SDS011;9295;44.484;11.240;2022-07-21T11:50:07;8.83;;;4.67;;
18338;SDS011;9295;44.484;11.240;2022-07-21T11:52:40;6.33;;;3.30;;
18338;SDS011;9295;44.484;11.240;2022-07-21T11:55:10;10.40;;;4.10;;
18338;SDS011;9295;44.484;11.240;2022-07-21T11:57:41;5.93;;;3.30;;
18338;SDS011;9295;44.484;11.240;2022-07-21T12:00:11;11.00;;;3.93;;
18338;SDS011;9295;44.484;11.240;2022-07-21T12:02:48;11.70;;;3.33;;
18338;SDS011;9295;44.484;11.240;2022-07-21T12:05:18;8.20;;;3.63;;
18338;SDS011;9295;44.484;11.240;2022-07-21T12:07:51;9.50;;;4.10;;
18338;SDS011;9295;44.484;11.240;2022-07-21T12:10:24;8.37;;;3.53;;
18338;SDS011;9295;44.484;11.240;2022-07-21T12:12:57;7.67;;;3.70;;
18338;SDS011;9295;44.484;11.240;2022-07-21T12:15:28;6.33;;;3.20;;
18338;SDS011;9295;44.484;11.240;2022-07-21T12:17:59;6.33;;;3.70;;
18338;SDS011;9295;44.484;11.240;2022-07-21T12:20:31;16.57;;;3.67;;
18338;SDS011;9295;44.484;11.240;2022-07-21T12:23:02;6.60;;;3.43;;
18338;SDS011;9295;44.484;11.240;2022-07-21T12:25:33;6.90;;;3.80;;
18338;SDS011;9295;44.484;11.240;2022-07-21T12:28:03;6.03;;;3.20;;
18338;SDS011;9295;44.484;11.240;2022-07-21T12:30:33;7.50;;;3.40;;
18338;SDS011;9295;44.484;11.240;2022-07-21T12:33:04;11.70;;;3.80;;
18338;SDS011;9295;44.484;11.240;2022-07-21T12:35:39;4.07;;;3.00;;
18338;SDS011;9295;44.484;11.240;2022-07-21T12:38:10;9.70;;;3.30;;
18338;SDS011;9295;44.484;11.240;2022-07-21T12:40:41;9.67;;;3.67;;
18338;SDS011;9295;44.484;11.240;2022-07-21T12:43:31;9.63;;;4.30;;
18338;SDS011;9295;44.484;11.240;2022-07-21T12:46:00;7.63;;;3.50;;
18338;SDS011;9295;44.484;11.240;2022-07-21T12:48:31;8.90;;;3.57;;
18338;SDS011;9295;44.484;11.240;2022-07-21T12:51:06;6.73;;;3.63;;
18338;SDS011;9295;44.484;11.240;2022-07-21T12:53:38;8.87;;;3.70;;
18338;SDS011;9295;44.484;11.240;2022-07-21T12:56:10;8.33;;;3.20;;
18338;SDS011;9295;44.484;11.240;2022-07-21T12:58:40;8.73;;;3.87;;
18338;SDS011;9295;44.484;11.240;2022-07-21T13:01:11;7.00;;;3.43;;
18338;SDS011;9295;44.484;11.240;2022-07-21T13:03:41;12.80;;;3.47;;
18338;SDS011;9295;44.484;11.240;2022-07-21T13:06:11;6.73;;;3.37;;
18338;SDS011;9295;44.484;11.240;2022-07-21T13:08:42;8.67;;;3.40;;
18338;SDS011;9295;44.484;11.240;2022-07-21T13:11:13;9.50;;;3.40;;
18338;SDS011;9295;44.484;11.240;2022-07-21T13:13:45;6.10;;;3.40;;
18338;SDS011;9295;44.484;11.240;2022-07-21T13:16:20;8.27;;;3.33;;
18338;SDS011;9295;44.484;11.240;2022-07-21T13:18:50;12.17;;;3.57;;
18338;SDS011;9295;44.484;11.240;2022-07-21T13:21:26;3.80;;;2.90;;
18338;SDS011;9295;44.484;11.240;2022-07-21T13:23:55;5.80;;;3.37;;
18338;SDS011;9295;44.484;11.240;2022-07-21T13:26:24;10.23;;;3.53;;
18338;SDS011;9295;44.484;11.240;2022-07-21T13:28:55;7.53;;;3.60;;
18338;SDS011;9295;44.484;11.240;2022-07-21T13:31:24;6.70;;;3.40;;
18338;SDS011;9295;44.484;11.240;2022-07-21T13:33:55;6.90;;;3.27;;
18338;SDS011;9295;44.484;11.240;2022-07-21T13:36:25;7.37;;;3.73;;
18338;SDS011;9295;44.484;11.240;2022-07-21T13:38:54;7.20;;;3.20;;
18338;SDS011;9295;44.484;11.240;2022-07-21T13:41:43;7.57;;;3.77;;
18338;SDS011;9295;44.484;11.240;2022-07-21T13:44:35;11.60;;;3.43;;
18338;SDS011;9295;44.484;11.240;2022-07-21T13:47:05;6.60;;;3.07;;
18338;SDS011;9295;44.484;11.240;2022-07-21T13:49:35;10.80;;;3.87;;
18338;SDS011;9295;44.484;11.240;2022-07-21T13:52:07;11.03;;;3.47;;
18338;SDS011;9295;44.484;11.240;2022-07-21T13:54:36;10.37;;;4.07;;
18338;SDS011;9295;44.484;11.240;2022-07-21T13:57:06;6.83;;;3.73;;
18338;SDS011;9295;44.484;11.240;2022-07-21T13:59:36;10.53;;;3.90;;
18338;SDS011;9295;44.484;11.240;2022-07-21T14:02:04;8.87;;;3.40;;
18338;SDS011;9295;44.484;11.240;2022-07-21T14:04:36;9.97;;;4.47;;
18338;SDS011;9295;44.484;11.240;2022-07-21T14:07:07;8.53;;;3.90;;
18338;SDS011;9295;44.484;11.240;2022-07-21T14:09:38;10.47;;;4.43;;
18338;SDS011;9295;44.484;11.240;2022-07-21T14:12:07;7.97;;;4.23;;
18338;SDS011;9295;44.484;11.240;2022-07-21T14:14:36;7.67;;;3.97;;
18338;SDS011;9295;44.484;11.240;2022-07-21T14:17:05;7.63;;;4.10;;
18338;SDS011;9295;44.484;11.240;2022-07-21T14:19:34;11.03;;;4.53;;
18338;SDS011;9295;44.484;11.240;2022-07-21T14:22:03;8.33;;;3.70;;
18338;SDS011;9295;44.484;11.240;2022-07-21T14:24:35;7.03;;;3.70;;
18338;SDS011;9295;44.484;11.240;2022-07-21T14:27:22;18.73;;;3.90;;
18338;SDS011;9295;44.484;11.240;2022-07-21T14:29:51;7.00;;;3.50;;
18338;SDS011;9295;44.484;11.240;2022-07-21T14:32:21;11.07;;;3.60;;
18338;SDS011;9295;44.484;11.240;2022-07-21T14:34:52;9.33;;;3.00;;
18338;SDS011;9295;44.484;11.240;2022-07-21T14:37:25;7.90;;;3.30;;
18338;SDS011;9295;44.484;11.240;2022-07-21T14:39:56;9.60;;;3.00;;
18338;SDS011;9295;44.484;11.240;2022-07-21T14:42:25;8.10;;;3.37;;
18338;SDS011;9295;44.484;11.240;2022-07-21T14:44:54;8.63;;;3.47;;
18338;SDS011;9295;44.484;11.240;2022-07-21T14:47:25;7.07;;;3.20;;
18338;SDS011;9295;44.484;11.240;2022-07-21T14:49:57;9.00;;;3.33;;
18338;SDS011;9295;44.484;11.240;2022-07-21T14:52:27;9.90;;;3.50;;
18338;SDS011;9295;44.484;11.240;2022-07-21T14:54:57;9.03;;;3.37;;
18338;SDS011;9295;44.484;11.240;2022-07-21T14:57:26;8.80;;;3.30;;
18338;SDS011;9295;44.484;11.240;2022-07-21T14:59:55;10.20;;;3.40;;
18338;SDS011;9295;44.484;11.240;2022-07-21T15:02:25;4.37;;;3.10;;
18338;SDS011;9295;44.484;11.240;2022-07-21T15:04:54;8.93;;;3.20;;
18338;SDS011;9295;44.484;11.240;2022-07-21T15:07:23;6.23;;;3.60;;
18338;SDS011;9295;44.484;11.240;2022-07-21T15:09:52;13.77;;;3.23;;